sensor_id;sensor_type;location;lat;lon;timestamp;temperature;humidity
27540;DHT22;15906;52.046;4.724;2023-09-08T00:01:28;19.60;99.90
27540;DHT22;15906;52.046;4.724;2023-09-08T00:03:53;19.60;99.90
27540;DHT22;15906;52.046;4.724;2023-09-08T00:06:19;19.50;99.90
27540;DHT22;15906;52.046;4.724;2023-09-08T00:08:44;19.50;99.90
27540;DHT22;15906;52.046;4.724;2023-09-08T00:11:10;19.40;99.90
27540;DHT22;15906;52.046;4.724;2023-09-08T00:13:35;19.50;99.90
27540;DHT22;15906;52.046;4.724;2023-09-08T00:16:01;19.60;99.90
27540;DHT22;15906;52.046;4.724;2023-09-08T00:18:27;19.60;99.90
27540;DHT22;15906;52.046;4.724;2023-09-08T00:20:52;19.60;99.90
27540;DHT22;15906;52.046;4.724;2023-09-08T00:23:18;19.70;99.90
27540;DHT22;15906;52.046;4.724;2023-09-08T00:25:43;19.70;99.90
27540;DHT22;15906;52.046;4.724;2023-09-08T00:28:09;19.70;99.90
27540;DHT22;15906;52.046;4.724;2023-09-08T00:30:35;19.70;99.90
27540;DHT22;15906;52.046;4.724;2023-09-08T00:33:00;19.70;99.90
27540;DHT22;15906;52.046;4.724;2023-09-08T00:35:26;19.60;99.90
27540;DHT22;15906;52.046;4.724;2023-09-08T00:37:51;19.70;99.90
27540;DHT22;15906;52.046;4.724;2023-09-08T00:40:17;19.70;99.90
27540;DHT22;15906;52.046;4.724;2023-09-08T00:42:43;19.60;99.90
27540;DHT22;15906;52.046;4.724;2023-09-08T00:45:08;19.60;99.90
27540;DHT22;15906;52.046;4.724;2023-09-08T00:47:34;19.60;99.90
27540;DHT22;15906;52.046;4.724;2023-09-08T00:50:03;19.50;99.90
27540;DHT22;15906;52.046;4.724;2023-09-08T00:52:29;19.50;99.90
27540;DHT22;15906;52.046;4.724;2023-09-08T00:54:58;19.50;99.90
27540;DHT22;15906;52.046;4.724;2023-09-08T00:57:24;19.40;99.90
27540;DHT22;15906;52.046;4.724;2023-09-08T00:59:49;19.40;99.90
27540;DHT22;15906;52.046;4.724;2023-09-08T01:02:15;19.40;99.90
27540;DHT22;15906;52.046;4.724;2023-09-08T01:04:41;19.40;99.90
27540;DHT22;15906;52.046;4.724;2023-09-08T01:07:08;19.40;99.90
27540;DHT22;15906;52.046;4.724;2023-09-08T01:09:34;19.30;99.90
27540;DHT22;15906;52.046;4.724;2023-09-08T01:12:06;19.30;99.90
27540;DHT22;15906;52.046;4.724;2023-09-08T01:14:32;19.20;99.90
27540;DHT22;15906;52.046;4.724;2023-09-08T01:16:57;19.20;99.90
27540;DHT22;15906;52.046;4.724;2023-09-08T01:19:23;19.20;99.90
27540;DHT22;15906;52.046;4.724;2023-09-08T01:27:29;19.30;99.90
27540;DHT22;15906;52.046;4.724;2023-09-08T01:29:58;19.30;99.90
27540;DHT22;15906;52.046;4.724;2023-09-08T01:32:25;19.40;99.90
27540;DHT22;15906;52.046;4.724;2023-09-08T01:34:51;19.40;99.90
27540;DHT22;15906;52.046;4.724;2023-09-08T01:37:17;19.30;99.90
27540;DHT22;15906;52.046;4.724;2023-09-08T01:39:42;19.40;99.90
27540;DHT22;15906;52.046;4.724;2023-09-08T01:42:08;19.40;99.90
27540;DHT22;15906;52.046;4.724;2023-09-08T01:44:33;19.20;99.90
27540;DHT22;15906;52.046;4.724;2023-09-08T01:46:59;19.20;99.90
27540;DHT22;15906;52.046;4.724;2023-09-08T01:49:25;19.10;99.90
27540;DHT22;15906;52.046;4.724;2023-09-08T01:51:51;19.10;99.90
27540;DHT22;15906;52.046;4.724;2023-09-08T01:54:17;19.10;99.90
27540;DHT22;15906;52.046;4.724;2023-09-08T01:56:42;19.00;99.90
27540;DHT22;15906;52.046;4.724;2023-09-08T01:59:08;19.00;99.90
27540;DHT22;15906;52.046;4.724;2023-09-08T02:01:33;18.90;99.90
27540;DHT22;15906;52.046;4.724;2023-09-08T02:03:59;18.80;99.90
27540;DHT22;15906;52.046;4.724;2023-09-08T02:06:24;18.70;99.90
27540;DHT22;15906;52.046;4.724;2023-09-08T02:08:50;18.80;99.90
27540;DHT22;15906;52.046;4.724;2023-09-08T02:11:15;18.70;99.90
27540;DHT22;15906;52.046;4.724;2023-09-08T02:13:44;18.70;99.90
27540;DHT22;15906;52.046;4.724;2023-09-08T02:16:16;18.70;99.90
27540;DHT22;15906;52.046;4.724;2023-09-08T02:18:45;18.70;99.90
27540;DHT22;15906;52.046;4.724;2023-09-08T02:21:12;18.70;99.90
27540;DHT22;15906;52.046;4.724;2023-09-08T02:23:37;18.70;99.90
27540;DHT22;15906;52.046;4.724;2023-09-08T02:26:03;18.70;99.90
27540;DHT22;15906;52.046;4.724;2023-09-08T02:28:29;18.60;99.90
27540;DHT22;15906;52.046;4.724;2023-09-08T02:30:54;18.60;99.90
27540;DHT22;15906;52.046;4.724;2023-09-08T02:33:20;18.50;99.90
27540;DHT22;15906;52.046;4.724;2023-09-08T02:35:46;18.50;99.90
27540;DHT22;15906;52.046;4.724;2023-09-08T02:38:11;18.40;99.90
27540;DHT22;15906;52.046;4.724;2023-09-08T02:40:37;18.50;99.90
27540;DHT22;15906;52.046;4.724;2023-09-08T02:43:03;18.50;99.90
27540;DHT22;15906;52.046;4.724;2023-09-08T02:45:29;18.40;99.90
27540;DHT22;15906;52.046;4.724;2023-09-08T02:47:55;18.40;99.90
27540;DHT22;15906;52.046;4.724;2023-09-08T02:50:21;18.30;99.90
27540;DHT22;15906;52.046;4.724;2023-09-08T02:52:47;18.40;99.90
27540;DHT22;15906;52.046;4.724;2023-09-08T02:55:12;18.30;99.90
27540;DHT22;15906;52.046;4.724;2023-09-08T02:57:39;18.30;99.90
27540;DHT22;15906;52.046;4.724;2023-09-08T03:00:05;18.30;99.90
27540;DHT22;15906;52.046;4.724;2023-09-08T03:02:32;18.30;99.90
27540;DHT22;15906;52.046;4.724;2023-09-08T03:04:57;18.30;99.90
27540;DHT22;15906;52.046;4.724;2023-09-08T03:07:23;18.30;99.90
27540;DHT22;15906;52.046;4.724;2023-09-08T03:09:49;18.40;99.90
27540;DHT22;15906;52.046;4.724;2023-09-08T03:12:14;18.40;99.90
27540;DHT22;15906;52.046;4.724;2023-09-08T03:14:40;18.50;99.90
27540;DHT22;15906;52.046;4.724;2023-09-08T03:17:05;18.40;99.90
27540;DHT22;15906;52.046;4.724;2023-09-08T03:19:32;18.50;99.90
27540;DHT22;15906;52.046;4.724;2023-09-08T03:21:58;18.50;99.90
27540;DHT22;15906;52.046;4.724;2023-09-08T03:24:24;18.50;99.90
27540;DHT22;15906;52.046;4.724;2023-09-08T03:26:50;18.50;99.90
27540;DHT22;15906;52.046;4.724;2023-09-08T03:29:15;18.50;99.90
27540;DHT22;15906;52.046;4.724;2023-09-08T03:31:41;18.60;99.90
27540;DHT22;15906;52.046;4.724;2023-09-08T03:34:06;18.60;99.90
27540;DHT22;15906;52.046;4.724;2023-09-08T03:36:32;18.60;99.90
27540;DHT22;15906;52.046;4.724;2023-09-08T03:39:01;18.60;99.90
27540;DHT22;15906;52.046;4.724;2023-09-08T03:41:27;18.60;99.90
27540;DHT22;15906;52.046;4.724;2023-09-08T03:43:52;18.60;99.90
27540;DHT22;15906;52.046;4.724;2023-09-08T03:46:18;18.50;99.90
27540;DHT22;15906;52.046;4.724;2023-09-08T03:48:43;18.50;99.90
27540;DHT22;15906;52.046;4.724;2023-09-08T03:51:09;18.50;99.90
27540;DHT22;15906;52.046;4.724;2023-09-08T03:53:35;18.50;99.90
27540;DHT22;15906;52.046;4.724;2023-09-08T03:56:00;18.60;99.90
27540;DHT22;15906;52.046;4.724;2023-09-08T03:58:26;18.50;99.90
27540;DHT22;15906;52.046;4.724;2023-09-08T04:00:51;18.60;99.90
27540;DHT22;15906;52.046;4.724;2023-09-08T04:03:17;18.50;99.90
27540;DHT22;15906;52.046;4.724;2023-09-08T04:05:42;18.50;99.90
27540;DHT22;15906;52.046;4.724;2023-09-08T04:08:08;18.50;99.90
27540;DHT22;15906;52.046;4.724;2023-09-08T04:10:33;18.40;99.90
27540;DHT22;15906;52.046;4.724;2023-09-08T04:12:59;18.40;99.90
27540;DHT22;15906;52.046;4.724;2023-09-08T04:15:24;18.50;99.90
27540;DHT22;15906;52.046;4.724;2023-09-08T04:17:50;18.40;99.90
27540;DHT22;15906;52.046;4.724;2023-09-08T04:20:15;18.40;99.90
27540;DHT22;15906;52.046;4.724;2023-09-08T04:22:41;18.40;99.90
27540;DHT22;15906;52.046;4.724;2023-09-08T04:25:07;18.40;99.90
27540;DHT22;15906;52.046;4.724;2023-09-08T04:27:33;18.30;99.90
27540;DHT22;15906;52.046;4.724;2023-09-08T04:29:58;18.30;99.90
27540;DHT22;15906;52.046;4.724;2023-09-08T04:32:24;18.30;99.90
27540;DHT22;15906;52.046;4.724;2023-09-08T04:34:50;18.20;99.90
27540;DHT22;15906;52.046;4.724;2023-09-08T04:37:16;18.20;99.90
27540;DHT22;15906;52.046;4.724;2023-09-08T04:39:42;18.20;99.90
27540;DHT22;15906;52.046;4.724;2023-09-08T04:42:08;18.10;99.90
27540;DHT22;15906;52.046;4.724;2023-09-08T04:44:34;18.10;99.90
27540;DHT22;15906;52.046;4.724;2023-09-08T04:46:59;18.00;99.90
27540;DHT22;15906;52.046;4.724;2023-09-08T04:49:25;18.10;99.90
27540;DHT22;15906;52.046;4.724;2023-09-08T04:51:50;18.00;99.90
27540;DHT22;15906;52.046;4.724;2023-09-08T04:54:16;18.00;99.90
27540;DHT22;15906;52.046;4.724;2023-09-08T04:56:41;18.00;99.90
27540;DHT22;15906;52.046;4.724;2023-09-08T04:59:07;18.00;99.90
27540;DHT22;15906;52.046;4.724;2023-09-08T05:01:33;18.00;99.90
27540;DHT22;15906;52.046;4.724;2023-09-08T05:04:02;18.00;99.90
27540;DHT22;15906;52.046;4.724;2023-09-08T05:06:27;18.00;99.90
27540;DHT22;15906;52.046;4.724;2023-09-08T05:08:53;18.00;99.90
27540;DHT22;15906;52.046;4.724;2023-09-08T05:11:18;18.00;99.90
27540;DHT22;15906;52.046;4.724;2023-09-08T05:13:45;18.00;99.90
27540;DHT22;15906;52.046;4.724;2023-09-08T05:16:11;18.00;99.90
27540;DHT22;15906;52.046;4.724;2023-09-08T05:18:38;18.00;99.90
27540;DHT22;15906;52.046;4.724;2023-09-08T05:21:04;18.10;99.90
27540;DHT22;15906;52.046;4.724;2023-09-08T05:23:30;18.10;99.90
27540;DHT22;15906;52.046;4.724;2023-09-08T05:25:56;18.10;99.90
27540;DHT22;15906;52.046;4.724;2023-09-08T05:28:21;18.00;99.90
27540;DHT22;15906;52.046;4.724;2023-09-08T05:30:47;18.10;99.90
27540;DHT22;15906;52.046;4.724;2023-09-08T05:33:12;18.10;99.90
27540;DHT22;15906;52.046;4.724;2023-09-08T05:35:38;18.10;99.90
27540;DHT22;15906;52.046;4.724;2023-09-08T05:38:03;18.00;99.90
27540;DHT22;15906;52.046;4.724;2023-09-08T05:40:30;18.10;99.90
27540;DHT22;15906;52.046;4.724;2023-09-08T05:42:56;18.10;99.90
27540;DHT22;15906;52.046;4.724;2023-09-08T05:45:21;18.10;99.90
27540;DHT22;15906;52.046;4.724;2023-09-08T05:47:48;18.10;99.90
27540;DHT22;15906;52.046;4.724;2023-09-08T05:50:14;18.10;99.90
27540;DHT22;15906;52.046;4.724;2023-09-08T05:52:40;18.10;99.90
27540;DHT22;15906;52.046;4.724;2023-09-08T05:55:06;18.10;99.90
27540;DHT22;15906;52.046;4.724;2023-09-08T05:57:31;18.10;99.90
27540;DHT22;15906;52.046;4.724;2023-09-08T05:59:57;18.10;99.90
27540;DHT22;15906;52.046;4.724;2023-09-08T06:02:22;18.20;99.90
27540;DHT22;15906;52.046;4.724;2023-09-08T06:04:48;18.20;99.90
27540;DHT22;15906;52.046;4.724;2023-09-08T06:07:14;18.10;99.90
27540;DHT22;15906;52.046;4.724;2023-09-08T06:09:39;18.20;99.90
27540;DHT22;15906;52.046;4.724;2023-09-08T06:12:05;18.30;99.90
27540;DHT22;15906;52.046;4.724;2023-09-08T06:14:30;18.20;99.90
27540;DHT22;15906;52.046;4.724;2023-09-08T06:16:56;18.20;99.90
27540;DHT22;15906;52.046;4.724;2023-09-08T06:19:22;18.30;99.90
27540;DHT22;15906;52.046;4.724;2023-09-08T06:21:47;18.30;99.90
27540;DHT22;15906;52.046;4.724;2023-09-08T06:24:13;18.30;99.90
27540;DHT22;15906;52.046;4.724;2023-09-08T06:26:38;18.30;99.90
27540;DHT22;15906;52.046;4.724;2023-09-08T06:29:04;18.30;99.90
27540;DHT22;15906;52.046;4.724;2023-09-08T06:31:29;18.40;99.90
27540;DHT22;15906;52.046;4.724;2023-09-08T06:33:55;18.40;99.90
27540;DHT22;15906;52.046;4.724;2023-09-08T06:36:21;18.40;99.90
27540;DHT22;15906;52.046;4.724;2023-09-08T06:38:47;18.50;99.90
27540;DHT22;15906;52.046;4.724;2023-09-08T06:41:12;18.50;99.90
27540;DHT22;15906;52.046;4.724;2023-09-08T06:43:38;18.60;99.90
27540;DHT22;15906;52.046;4.724;2023-09-08T06:46:04;18.60;99.90
27540;DHT22;15906;52.046;4.724;2023-09-08T06:48:30;18.70;99.90
27540;DHT22;15906;52.046;4.724;2023-09-08T06:50:55;18.80;99.90
27540;DHT22;15906;52.046;4.724;2023-09-08T06:53:22;18.90;99.90
27540;DHT22;15906;52.046;4.724;2023-09-08T06:55:48;19.00;99.90
27540;DHT22;15906;52.046;4.724;2023-09-08T06:58:13;19.10;99.90
27540;DHT22;15906;52.046;4.724;2023-09-08T07:00:42;19.40;99.90
27540;DHT22;15906;52.046;4.724;2023-09-08T07:03:07;19.70;99.90
27540;DHT22;15906;52.046;4.724;2023-09-08T07:05:38;20.00;99.90
27540;DHT22;15906;52.046;4.724;2023-09-08T07:08:04;20.40;99.90
27540;DHT22;15906;52.046;4.724;2023-09-08T07:10:31;20.60;99.90
27540;DHT22;15906;52.046;4.724;2023-09-08T07:12:57;21.00;99.90
27540;DHT22;15906;52.046;4.724;2023-09-08T07:15:22;21.30;99.90
27540;DHT22;15906;52.046;4.724;2023-09-08T07:17:48;21.70;99.90
27540;DHT22;15906;52.046;4.724;2023-09-08T07:20:13;22.10;99.90
27540;DHT22;15906;52.046;4.724;2023-09-08T07:22:39;22.50;99.90
27540;DHT22;15906;52.046;4.724;2023-09-08T07:25:05;22.70;99.90
27540;DHT22;15906;52.046;4.724;2023-09-08T07:27:31;23.00;99.90
27540;DHT22;15906;52.046;4.724;2023-09-08T07:29:56;23.20;99.90
27540;DHT22;15906;52.046;4.724;2023-09-08T07:32:22;23.50;99.90
27540;DHT22;15906;52.046;4.724;2023-09-08T07:34:48;23.60;99.90
27540;DHT22;15906;52.046;4.724;2023-09-08T07:37:21;23.80;99.90
27540;DHT22;15906;52.046;4.724;2023-09-08T07:39:46;23.90;99.90
27540;DHT22;15906;52.046;4.724;2023-09-08T07:42:12;23.70;99.90
27540;DHT22;15906;52.046;4.724;2023-09-08T07:44:37;24.00;99.90
27540;DHT22;15906;52.046;4.724;2023-09-08T07:47:03;24.20;99.90
27540;DHT22;15906;52.046;4.724;2023-09-08T07:49:29;24.40;99.90
27540;DHT22;15906;52.046;4.724;2023-09-08T07:51:54;24.40;99.90
27540;DHT22;15906;52.046;4.724;2023-09-08T07:54:20;24.40;99.90
27540;DHT22;15906;52.046;4.724;2023-09-08T07:56:46;24.50;99.90
27540;DHT22;15906;52.046;4.724;2023-09-08T07:59:12;24.50;99.90
27540;DHT22;15906;52.046;4.724;2023-09-08T08:01:38;24.40;99.90
27540;DHT22;15906;52.046;4.724;2023-09-08T08:04:04;24.40;99.90
27540;DHT22;15906;52.046;4.724;2023-09-08T08:06:30;24.70;99.90
27540;DHT22;15906;52.046;4.724;2023-09-08T08:08:55;24.70;99.90
27540;DHT22;15906;52.046;4.724;2023-09-08T08:11:21;24.90;99.90
27540;DHT22;15906;52.046;4.724;2023-09-08T08:13:47;24.90;99.90
27540;DHT22;15906;52.046;4.724;2023-09-08T08:16:12;24.90;99.90
27540;DHT22;15906;52.046;4.724;2023-09-08T08:18:38;24.80;99.90
27540;DHT22;15906;52.046;4.724;2023-09-08T08:21:04;25.00;99.90
27540;DHT22;15906;52.046;4.724;2023-09-08T08:23:32;25.10;99.90
27540;DHT22;15906;52.046;4.724;2023-09-08T08:25:59;25.10;99.90
27540;DHT22;15906;52.046;4.724;2023-09-08T08:28:25;25.20;99.90
27540;DHT22;15906;52.046;4.724;2023-09-08T08:30:51;25.30;99.90
27540;DHT22;15906;52.046;4.724;2023-09-08T08:33:17;25.10;99.90
27540;DHT22;15906;52.046;4.724;2023-09-08T08:35:49;25.10;99.90
27540;DHT22;15906;52.046;4.724;2023-09-08T08:38:15;25.10;99.90
27540;DHT22;15906;52.046;4.724;2023-09-08T08:40:41;25.30;99.90
27540;DHT22;15906;52.046;4.724;2023-09-08T08:43:07;25.40;99.90
27540;DHT22;15906;52.046;4.724;2023-09-08T08:45:34;25.50;99.90
27540;DHT22;15906;52.046;4.724;2023-09-08T08:48:01;25.80;99.90
27540;DHT22;15906;52.046;4.724;2023-09-08T08:50:27;25.70;99.90
27540;DHT22;15906;52.046;4.724;2023-09-08T08:52:52;25.80;99.90
27540;DHT22;15906;52.046;4.724;2023-09-08T08:55:18;25.90;99.90
27540;DHT22;15906;52.046;4.724;2023-09-08T08:57:44;26.00;99.90
27540;DHT22;15906;52.046;4.724;2023-09-08T09:00:11;26.30;99.90
27540;DHT22;15906;52.046;4.724;2023-09-08T09:02:42;26.50;99.90
27540;DHT22;15906;52.046;4.724;2023-09-08T09:05:12;26.60;99.90
27540;DHT22;15906;52.046;4.724;2023-09-08T09:07:40;26.90;99.90
27540;DHT22;15906;52.046;4.724;2023-09-08T09:10:07;27.10;99.90
27540;DHT22;15906;52.046;4.724;2023-09-08T09:12:33;26.90;99.90
27540;DHT22;15906;52.046;4.724;2023-09-08T09:14:59;26.90;99.90
27540;DHT22;15906;52.046;4.724;2023-09-08T09:17:32;27.10;99.90
27540;DHT22;15906;52.046;4.724;2023-09-08T09:20:16;27.30;99.90
27540;DHT22;15906;52.046;4.724;2023-09-08T09:22:49;27.70;99.90
27540;DHT22;15906;52.046;4.724;2023-09-08T09:25:28;27.80;99.90
27540;DHT22;15906;52.046;4.724;2023-09-08T09:27:55;27.80;99.90
27540;DHT22;15906;52.046;4.724;2023-09-08T09:30:22;28.00;99.90
27540;DHT22;15906;52.046;4.724;2023-09-08T09:32:57;28.20;99.90
27540;DHT22;15906;52.046;4.724;2023-09-08T09:35:42;28.00;99.90
27540;DHT22;15906;52.046;4.724;2023-09-08T09:38:08;27.80;99.90
27540;DHT22;15906;52.046;4.724;2023-09-08T09:40:34;27.80;99.90
27540;DHT22;15906;52.046;4.724;2023-09-08T09:42:59;27.90;99.90
27540;DHT22;15906;52.046;4.724;2023-09-08T09:45:25;27.80;99.90
27540;DHT22;15906;52.046;4.724;2023-09-08T09:47:52;28.10;99.90
27540;DHT22;15906;52.046;4.724;2023-09-08T09:50:31;28.40;99.90
27540;DHT22;15906;52.046;4.724;2023-09-08T09:52:59;28.50;99.90
27540;DHT22;15906;52.046;4.724;2023-09-08T09:55:28;28.80;99.90
27540;DHT22;15906;52.046;4.724;2023-09-08T09:57:58;28.90;99.90
27540;DHT22;15906;52.046;4.724;2023-09-08T10:00:26;28.50;99.90
27540;DHT22;15906;52.046;4.724;2023-09-08T10:02:53;28.70;99.90
27540;DHT22;15906;52.046;4.724;2023-09-08T10:05:19;29.00;99.90
27540;DHT22;15906;52.046;4.724;2023-09-08T10:07:47;28.90;99.90
27540;DHT22;15906;52.046;4.724;2023-09-08T10:10:12;29.20;99.90
27540;DHT22;15906;52.046;4.724;2023-09-08T10:12:38;29.40;99.90
27540;DHT22;15906;52.046;4.724;2023-09-08T10:15:07;29.30;99.90
27540;DHT22;15906;52.046;4.724;2023-09-08T10:17:35;29.20;99.90
27540;DHT22;15906;52.046;4.724;2023-09-08T10:20:01;28.90;99.90
27540;DHT22;15906;52.046;4.724;2023-09-08T10:22:38;29.20;99.90
27540;DHT22;15906;52.046;4.724;2023-09-08T10:25:05;29.00;99.90
27540;DHT22;15906;52.046;4.724;2023-09-08T10:27:31;29.00;99.90
27540;DHT22;15906;52.046;4.724;2023-09-08T10:30:00;29.00;99.90
27540;DHT22;15906;52.046;4.724;2023-09-08T10:32:27;29.20;99.90
27540;DHT22;15906;52.046;4.724;2023-09-08T10:34:53;29.10;99.90
27540;DHT22;15906;52.046;4.724;2023-09-08T10:37:21;29.40;99.90
27540;DHT22;15906;52.046;4.724;2023-09-08T10:39:46;29.60;99.90
27540;DHT22;15906;52.046;4.724;2023-09-08T10:47:25;29.80;99.90
27540;DHT22;15906;52.046;4.724;2023-09-08T10:49:55;30.10;99.90
27540;DHT22;15906;52.046;4.724;2023-09-08T10:52:23;30.20;99.70
27540;DHT22;15906;52.046;4.724;2023-09-08T10:54:52;30.20;99.00
27540;DHT22;15906;52.046;4.724;2023-09-08T10:57:21;30.10;99.80
27540;DHT22;15906;52.046;4.724;2023-09-08T10:59:58;30.00;99.80
27540;DHT22;15906;52.046;4.724;2023-09-08T11:05:02;30.30;99.90
27540;DHT22;15906;52.046;4.724;2023-09-08T11:07:30;30.40;99.90
27540;DHT22;15906;52.046;4.724;2023-09-08T11:09:57;30.50;99.40
27540;DHT22;15906;52.046;4.724;2023-09-08T11:12:26;30.60;99.90
27540;DHT22;15906;52.046;4.724;2023-09-08T11:14:52;30.60;99.80
27540;DHT22;15906;52.046;4.724;2023-09-08T11:17:17;30.70;99.90
27540;DHT22;15906;52.046;4.724;2023-09-08T11:19:49;30.70;99.40
27540;DHT22;15906;52.046;4.724;2023-09-08T11:22:16;30.90;98.20
27540;DHT22;15906;52.046;4.724;2023-09-08T11:24:42;31.00;99.30
27540;DHT22;15906;52.046;4.724;2023-09-08T11:27:09;31.30;97.90
27540;DHT22;15906;52.046;4.724;2023-09-08T11:29:35;31.40;99.10
27540;DHT22;15906;52.046;4.724;2023-09-08T11:32:01;31.50;97.20
27540;DHT22;15906;52.046;4.724;2023-09-08T11:34:27;31.40;99.00
27540;DHT22;15906;52.046;4.724;2023-09-08T11:36:53;31.40;97.40
27540;DHT22;15906;52.046;4.724;2023-09-08T11:39:23;31.70;98.00
27540;DHT22;15906;52.046;4.724;2023-09-08T11:41:50;31.80;97.70
27540;DHT22;15906;52.046;4.724;2023-09-08T11:44:17;32.00;97.50
27540;DHT22;15906;52.046;4.724;2023-09-08T11:46:43;31.40;95.70
27540;DHT22;15906;52.046;4.724;2023-09-08T11:49:09;31.50;96.70
27540;DHT22;15906;52.046;4.724;2023-09-08T11:51:34;31.30;97.90
27540;DHT22;15906;52.046;4.724;2023-09-08T11:54:00;31.50;98.20
27540;DHT22;15906;52.046;4.724;2023-09-08T11:56:26;31.20;96.50
27540;DHT22;15906;52.046;4.724;2023-09-08T11:58:52;31.50;97.40
27540;DHT22;15906;52.046;4.724;2023-09-08T12:01:18;31.40;96.50
27540;DHT22;15906;52.046;4.724;2023-09-08T12:03:54;31.10;96.80
27540;DHT22;15906;52.046;4.724;2023-09-08T12:06:26;31.50;99.90
27540;DHT22;15906;52.046;4.724;2023-09-08T12:08:56;31.80;96.40
27540;DHT22;15906;52.046;4.724;2023-09-08T12:11:21;31.60;96.70
27540;DHT22;15906;52.046;4.724;2023-09-08T12:13:47;31.60;96.50
27540;DHT22;15906;52.046;4.724;2023-09-08T12:16:19;31.60;95.20
27540;DHT22;15906;52.046;4.724;2023-09-08T12:18:45;31.70;96.20
27540;DHT22;15906;52.046;4.724;2023-09-08T12:21:11;31.50;95.20
27540;DHT22;15906;52.046;4.724;2023-09-08T12:23:50;31.60;96.40
27540;DHT22;15906;52.046;4.724;2023-09-08T12:26:17;31.50;95.60
27540;DHT22;15906;52.046;4.724;2023-09-08T12:28:43;31.20;96.40
27540;DHT22;15906;52.046;4.724;2023-09-08T12:31:09;30.90;97.70
27540;DHT22;15906;52.046;4.724;2023-09-08T12:33:35;30.90;96.30
27540;DHT22;15906;52.046;4.724;2023-09-08T12:36:10;31.10;95.80
27540;DHT22;15906;52.046;4.724;2023-09-08T12:38:36;30.90;98.40
27540;DHT22;15906;52.046;4.724;2023-09-08T12:41:02;31.30;97.20
27540;DHT22;15906;52.046;4.724;2023-09-08T12:43:27;31.10;96.20
27540;DHT22;15906;52.046;4.724;2023-09-08T12:45:53;31.30;96.10
27540;DHT22;15906;52.046;4.724;2023-09-08T12:48:18;31.30;95.50
27540;DHT22;15906;52.046;4.724;2023-09-08T12:50:44;31.40;96.40
27540;DHT22;15906;52.046;4.724;2023-09-08T12:53:09;31.60;95.90
27540;DHT22;15906;52.046;4.724;2023-09-08T12:55:35;31.60;95.90
27540;DHT22;15906;52.046;4.724;2023-09-08T12:58:01;31.80;97.10
27540;DHT22;15906;52.046;4.724;2023-09-08T13:00:26;31.80;95.20
27540;DHT22;15906;52.046;4.724;2023-09-08T13:02:53;31.50;95.00
27540;DHT22;15906;52.046;4.724;2023-09-08T13:05:19;31.40;97.00
27540;DHT22;15906;52.046;4.724;2023-09-08T13:07:44;31.60;98.00
27540;DHT22;15906;52.046;4.724;2023-09-08T13:10:10;31.70;94.70
27540;DHT22;15906;52.046;4.724;2023-09-08T13:12:35;31.80;96.00
27540;DHT22;15906;52.046;4.724;2023-09-08T13:15:01;31.90;95.80
27540;DHT22;15906;52.046;4.724;2023-09-08T13:17:26;32.00;95.30
27540;DHT22;15906;52.046;4.724;2023-09-08T13:19:52;31.90;94.60
27540;DHT22;15906;52.046;4.724;2023-09-08T13:22:18;31.50;93.60
27540;DHT22;15906;52.046;4.724;2023-09-08T13:24:44;31.50;94.20
27540;DHT22;15906;52.046;4.724;2023-09-08T13:27:09;31.60;94.60
27540;DHT22;15906;52.046;4.724;2023-09-08T13:29:36;31.70;94.70
27540;DHT22;15906;52.046;4.724;2023-09-08T13:32:03;31.60;94.70
27540;DHT22;15906;52.046;4.724;2023-09-08T13:34:29;31.10;95.20
27540;DHT22;15906;52.046;4.724;2023-09-08T13:36:55;31.30;97.80
27540;DHT22;15906;52.046;4.724;2023-09-08T13:39:20;31.40;97.00
27540;DHT22;15906;52.046;4.724;2023-09-08T13:41:53;31.20;95.80
27540;DHT22;15906;52.046;4.724;2023-09-08T13:44:21;31.30;96.80
27540;DHT22;15906;52.046;4.724;2023-09-08T13:46:47;31.30;95.10
27540;DHT22;15906;52.046;4.724;2023-09-08T13:49:16;31.20;95.60
27540;DHT22;15906;52.046;4.724;2023-09-08T13:51:42;31.20;94.70
27540;DHT22;15906;52.046;4.724;2023-09-08T13:54:08;30.90;95.80
27540;DHT22;15906;52.046;4.724;2023-09-08T13:56:34;30.90;95.20
27540;DHT22;15906;52.046;4.724;2023-09-08T13:59:01;30.90;95.70
27540;DHT22;15906;52.046;4.724;2023-09-08T14:01:27;30.80;96.20
27540;DHT22;15906;52.046;4.724;2023-09-08T14:03:54;30.50;95.80
27540;DHT22;15906;52.046;4.724;2023-09-08T14:06:21;30.60;96.60
27540;DHT22;15906;52.046;4.724;2023-09-08T14:08:47;30.50;96.50
27540;DHT22;15906;52.046;4.724;2023-09-08T14:11:12;30.50;96.40
27540;DHT22;15906;52.046;4.724;2023-09-08T14:13:38;30.30;96.00
27540;DHT22;15906;52.046;4.724;2023-09-08T14:16:04;30.10;96.80
27540;DHT22;15906;52.046;4.724;2023-09-08T14:18:29;30.00;96.50
27540;DHT22;15906;52.046;4.724;2023-09-08T14:20:55;30.00;97.20
27540;DHT22;15906;52.046;4.724;2023-09-08T14:23:21;29.90;96.60
27540;DHT22;15906;52.046;4.724;2023-09-08T14:25:46;29.80;97.70
27540;DHT22;15906;52.046;4.724;2023-09-08T14:28:12;29.80;98.10
27540;DHT22;15906;52.046;4.724;2023-09-08T14:30:37;29.80;97.10
27540;DHT22;15906;52.046;4.724;2023-09-08T14:33:03;29.60;95.90
27540;DHT22;15906;52.046;4.724;2023-09-08T14:35:29;29.60;97.50
27540;DHT22;15906;52.046;4.724;2023-09-08T14:37:54;29.50;97.60
27540;DHT22;15906;52.046;4.724;2023-09-08T14:40:22;29.50;95.20
27540;DHT22;15906;52.046;4.724;2023-09-08T14:42:48;29.50;96.70
27540;DHT22;15906;52.046;4.724;2023-09-08T14:45:13;29.30;95.70
27540;DHT22;15906;52.046;4.724;2023-09-08T14:47:39;29.30;96.10
27540;DHT22;15906;52.046;4.724;2023-09-08T14:50:05;29.30;96.20
27540;DHT22;15906;52.046;4.724;2023-09-08T14:52:30;29.30;95.00
27540;DHT22;15906;52.046;4.724;2023-09-08T14:54:56;29.30;95.00
27540;DHT22;15906;52.046;4.724;2023-09-08T14:57:22;29.20;95.40
27540;DHT22;15906;52.046;4.724;2023-09-08T14:59:47;29.10;94.50
27540;DHT22;15906;52.046;4.724;2023-09-08T15:02:13;29.20;96.00
27540;DHT22;15906;52.046;4.724;2023-09-08T15:04:39;29.20;96.10
27540;DHT22;15906;52.046;4.724;2023-09-08T15:07:04;29.10;94.40
27540;DHT22;15906;52.046;4.724;2023-09-08T15:09:30;29.00;94.60
27540;DHT22;15906;52.046;4.724;2023-09-08T15:11:55;29.00;95.40
27540;DHT22;15906;52.046;4.724;2023-09-08T15:14:21;28.90;95.40
27540;DHT22;15906;52.046;4.724;2023-09-08T15:16:47;28.80;95.00
27540;DHT22;15906;52.046;4.724;2023-09-08T15:19:12;28.80;95.80
27540;DHT22;15906;52.046;4.724;2023-09-08T15:21:38;28.90;95.20
27540;DHT22;15906;52.046;4.724;2023-09-08T15:24:04;29.00;96.70
27540;DHT22;15906;52.046;4.724;2023-09-08T15:26:30;28.90;95.20
27540;DHT22;15906;52.046;4.724;2023-09-08T15:28:55;28.90;95.40
27540;DHT22;15906;52.046;4.724;2023-09-08T15:31:21;28.80;96.10
27540;DHT22;15906;52.046;4.724;2023-09-08T15:33:46;28.80;96.90
27540;DHT22;15906;52.046;4.724;2023-09-08T15:36:12;28.70;96.70
27540;DHT22;15906;52.046;4.724;2023-09-08T15:38:38;28.70;95.50